Time;durP1;ratioP1;P1;durP2;ratioP2;P2;SDS_P1;SDS_P2;PMS_P1;PMS_P2;Temp;Humidity;BMP_temperature;BMP_pressure;BME280_temperature;BME280_humidity;BME280_pressure;Samples;Min_cycle;Max_cycle;Signal;HPM_P1;HPM_P2
2022/06/16 00:02:11;;;;;;;3.83;3.43;;;19.40;99.90;;;;;;5137421;27;20166;-71
2022/06/16 00:04:36;;;;;;;4.17;3.83;;;19.40;99.90;;;;;;5137943;27;20556;-71
2022/06/16 00:07:02;;;;;;;8.23;4.03;;;19.30;99.90;;;;;;5138235;27;20200;-66
2022/06/16 00:09:28;;;;;;;4.10;3.70;;;19.10;99.90;;;;;;5137827;27;20269;-69
2022/06/16 00:11:54;;;;;;;6.77;3.87;;;18.70;99.90;;;;;;5138229;27;20176;-70
2022/06/16 00:14:22;;;;;;;10.03;3.80;;;18.30;99.90;;;;;;5138120;27;20263;-69
2022/06/16 00:16:48;;;;;;;5.00;4.07;;;17.30;99.90;;;;;;5138146;27;20600;-70
2022/06/16 00:19:14;;;;;;;4.60;3.73;;;-1.80;99.90;;;;;;5138068;27;20171;-68
2022/06/16 00:21:40;;;;;;;5.53;3.87;;;-3.70;99.90;;;;;;5138087;27;20232;-68
2022/06/16 00:24:06;;;;;;;4.73;3.90;;;-5.20;99.90;;;;;;5137994;27;20188;-67
2022/06/16 00:26:32;;;;;;;5.87;3.70;;;-7.60;99.90;;;;;;5137894;27;20172;-69
2022/06/16 00:28:58;;;;;;;7.37;5.00;;;-6.60;99.90;;;;;;5137976;27;20165;-70
2022/06/16 00:31:24;;;;;;;3.70;3.50;;;-6.10;99.90;;;;;;5137641;27;20157;-69
2022/06/16 00:33:50;;;;;;;5.43;3.93;;;-8.00;99.90;;;;;;5137934;27;20161;-72
2022/06/16 00:36:16;;;;;;;5.23;3.80;;;-8.10;99.90;;;;;;5137477;27;20160;-71
2022/06/16 00:38:43;;;;;;;4.07;3.70;;;-4.90;99.90;;;;;;5137713;27;20240;-70
2022/06/16 00:41:10;;;;;;;3.20;3.00;;;-7.80;99.90;;;;;;5136550;27;20521;-72
2022/06/16 00:43:36;;;;;;;4.07;3.67;;;18.70;99.90;;;;;;5137606;27;20603;-64
2022/06/16 00:46:05;;;;;;;4.33;4.07;;;18.60;99.90;;;;;;5137575;27;20161;-70
2022/06/16 00:48:35;;;;;;;7.60;4.90;;;18.50;99.90;;;;;;5137406;27;20167;-68
2022/06/16 00:51:24;;;;;;;4.30;3.87;;;18.50;99.90;;;;;;5137092;27;20165;-71
2022/06/16 00:53:51;;;;;;;5.60;4.27;;;18.40;99.90;;;;;;5137559;27;20157;-67
2022/06/16 00:56:19;;;;;;;6.27;4.03;;;18.30;99.90;;;;;;5137113;27;20252;-66
2022/06/16 00:58:50;;;;;;;8.00;5.20;;;18.20;99.90;;;;;;5137341;27;20192;-67
2022/06/16 01:01:20;;;;;;;6.90;4.60;;;18.10;99.90;;;;;;5137073;27;20158;-66
2022/06/16 01:06:31;;;;;;;3.97;3.50;;;18.10;99.90;;;;;;5136840;27;20544;-70
2022/06/16 01:09:15;;;;;;;9.50;4.67;;;18.00;99.90;;;;;;5137372;27;20162;-72
2022/06/16 01:15:50;;;;;;;5.30;4.17;;;17.80;99.90;;;;;;5137083;27;20583;-68
2022/06/16 01:18:37;;;;;;;7.27;4.60;;;17.60;99.90;;;;;;5097080;28;20209;-64
2022/06/16 01:21:14;;;;;;;5.33;4.60;;;17.30;99.90;;;;;;5135285;27;20169;-69
2022/06/16 01:24:10;;;;;;;4.93;4.53;;;17.10;99.90;;;;;;5137056;27;20188;-65
2022/06/16 01:27:11;;;;;;;5.27;4.97;;;16.90;99.90;;;;;;5136834;27;20230;-68
2022/06/16 01:29:49;;;;;;;7.30;4.63;;;16.70;99.90;;;;;;5136826;27;20161;-69
2022/06/16 01:32:42;;;;;;;8.33;4.50;;;16.40;99.90;;;;;;5136871;27;20169;-66
2022/06/16 01:35:33;;;;;;;4.77;4.17;;;15.90;99.90;;;;;;5136500;27;20177;-68
2022/06/16 01:38:14;;;;;;;6.57;5.83;;;13.80;99.90;;;;;;5136580;27;20306;-66
2022/06/16 01:41:10;;;;;;;4.83;4.33;;;-13.40;99.90;;;;;;5136622;27;20458;-68
2022/06/16 01:43:48;;;;;;;6.60;5.43;;;-9.60;99.90;;;;;;5136870;27;20176;-69
2022/06/16 01:46:27;;;;;;;6.10;5.10;;;-16.00;99.90;;;;;;5135689;27;20260;-65
2022/06/16 01:49:04;;;;;;;11.03;5.70;;;-9.10;99.90;;;;;;5135446;27;20160;-68
2022/06/16 01:51:45;;;;;;;5.53;5.03;;;-9.10;99.90;;;;;;5136571;27;20165;-66
2022/06/16 01:54:36;;;;;;;9.40;5.80;;;-12.10;99.90;;;;;;5136756;27;20184;-71
2022/06/16 01:57:02;;;;;;;5.93;5.43;;;-16.50;99.90;;;;;;5132678;28;20193;-67
2022/06/16 01:59:36;;;;;;;6.67;5.00;;;-13.20;99.90;;;;;;5136673;27;20173;-66
2022/06/16 02:02:11;;;;;;;5.63;5.07;;;-15.80;99.90;;;;;;5136454;27;20191;-68
2022/06/16 02:04:58;;;;;;;5.27;4.87;;;-17.00;99.90;;;;;;5136041;27;20161;-72
2022/06/16 02:07:38;;;;;;;6.00;5.40;;;-15.70;99.90;;;;;;5136198;27;20702;-72
2022/06/16 02:10:25;;;;;;;4.70;4.30;;;-13.00;99.90;;;;;;5136466;27;20165;-68
2022/06/16 02:12:57;;;;;;;6.97;5.37;;;-11.60;99.90;;;;;;5136520;27;20187;-72
2022/06/16 02:15:36;;;;;;;4.50;4.10;;;-9.70;99.90;;;;;;5135663;28;20176;-72
2022/06/16 02:18:06;;;;;;;5.27;4.77;;;-14.00;99.90;;;;;;5136105;27;20185;-67
2022/06/16 02:20:51;;;;;;;4.73;4.33;;;-12.60;99.90;;;;;;5135286;27;20165;-69
2022/06/16 02:23:17;;;;;;;7.20;5.20;;;-9.60;99.90;;;;;;5136420;27;20599;-72
2022/06/16 02:25:45;;;;;;;5.93;5.43;;;-10.40;99.90;;;;;;5136380;27;20241;-73
2022/06/16 02:28:12;;;;;;;7.30;5.53;;;-12.90;99.90;;;;;;5137648;27;20165;-71
2022/06/16 02:31:05;;;;;;;5.77;5.23;;;-11.00;99.90;;;;;;5140229;27;20633;-71
2022/06/16 02:33:51;;;;;;;5.60;5.10;;;-11.50;99.90;;;;;;5129312;27;20181;-69
2022/06/16 02:36:22;;;;;;;5.63;5.10;;;-11.40;99.90;;;;;;5140072;27;20200;-70
2022/06/16 02:39:09;;;;;;;5.80;5.20;;;-10.50;99.90;;;;;;5138988;27;20592;-66
2022/06/16 02:41:55;;;;;;;4.87;4.50;;;-10.60;99.90;;;;;;5140023;27;20180;-71
2022/06/16 02:44:28;;;;;;;7.33;5.80;;;-9.00;99.90;;;;;;5140036;27;20189;-64
2022/06/16 02:47:01;;;;;;;8.57;6.83;;;-12.60;99.90;;;;;;5139634;27;20172;-66
2022/06/16 02:49:29;;;;;;;6.97;6.20;;;-13.20;99.90;;;;;;5139747;27;20161;-65
2022/06/16 02:52:17;;;;;;;6.37;5.77;;;-13.70;99.90;;;;;;5139857;27;20169;-66
2022/06/16 02:54:51;;;;;;;7.33;6.43;;;-14.00;99.90;;;;;;5139707;27;20580;-68
2022/06/16 02:57:29;;;;;;;6.23;5.70;;;-11.90;99.90;;;;;;5139536;27;20584;-67
2022/06/16 03:00:07;;;;;;;6.13;5.63;;;-11.50;99.90;;;;;;5139694;27;20171;-70
2022/06/16 03:02:36;;;;;;;6.97;5.17;;;-12.10;99.90;;;;;;5139224;27;20157;-72
2022/06/16 03:05:05;;;;;;;8.30;4.90;;;-12.50;99.90;;;;;;5139426;27;20165;-68
2022/06/16 03:07:33;;;;;;;7.17;4.93;;;-12.80;99.90;;;;;;5139371;27;20225;-71
2022/06/16 03:10:00;;;;;;;4.93;4.63;;;-12.40;99.90;;;;;;5138471;27;20226;-72
2022/06/16 03:12:26;;;;;;;5.90;5.37;;;-12.30;99.90;;;;;;5139400;27;20170;-72
2022/06/16 03:14:52;;;;;;;5.93;5.30;;;-13.90;99.90;;;;;;5139316;27;20169;-69
2022/06/16 03:17:18;;;;;;;6.23;5.27;;;-12.60;99.90;;;;;;5139008;27;20249;-71
2022/06/16 03:19:44;;;;;;;5.83;5.23;;;-8.70;99.90;;;;;;5139187;27;20355;-66
2022/06/16 03:22:11;;;;;;;6.30;5.90;;;-10.90;99.90;;;;;;5139377;27;20201;-68
2022/06/16 03:24:37;;;;;;;6.17;5.63;;;-10.90;99.90;;;;;;5139120;27;20244;-68
2022/06/16 03:27:04;;;;;;;6.53;6.00;;;-15.30;99.90;;;;;;5138152;27;20218;-67
2022/06/16 03:29:30;;;;;;;6.60;6.00;;;-15.10;99.90;;;;;;5138900;27;20686;-72
2022/06/16 03:31:56;;;;;;;8.30;6.33;;;-13.70;99.90;;;;;;5137938;27;20202;-69
2022/06/16 03:34:23;;;;;;;6.67;6.17;;;-13.40;99.90;;;;;;5138957;27;20165;-67
2022/06/16 03:36:49;;;;;;;8.90;6.00;;;-12.70;99.90;;;;;;5138806;27;20201;-69
2022/06/16 03:39:15;;;;;;;6.23;5.63;;;-13.40;99.90;;;;;;5138178;27;20166;-68
2022/06/16 03:41:42;;;;;;;7.67;5.37;;;-10.60;99.90;;;;;;5138827;27;20201;-65
2022/06/16 03:44:07;;;;;;;10.33;6.33;;;-15.70;99.90;;;;;;5138824;27;20184;-70
2022/06/16 03:46:33;;;;;;;12.03;6.67;;;-13.70;99.90;;;;;;5138585;27;20178;-66
2022/06/16 03:48:59;;;;;;;6.03;5.53;;;-12.60;99.90;;;;;;5138748;27;20176;-65
2022/06/16 03:51:25;;;;;;;6.60;6.00;;;-10.20;99.90;;;;;;5138815;27;20459;-67
2022/06/16 03:53:51;;;;;;;9.53;7.10;;;-9.70;99.90;;;;;;5137422;27;20174;-70
2022/06/16 03:56:17;;;;;;;6.27;5.77;;;-10.80;99.90;;;;;;5138609;27;20177;-73
2022/06/16 03:58:43;;;;;;;10.17;6.57;;;-14.10;99.90;;;;;;5137331;27;20197;-72
2022/06/16 04:01:09;;;;;;;5.87;5.47;;;-13.90;99.90;;;;;;5137356;27;20495;-70
2022/06/16 04:06:20;;;;;;;7.30;5.83;;;-11.60;99.90;;;;;;5138558;27;20216;-66
2022/06/16 04:08:46;;;;;;;8.17;5.17;;;-13.10;99.90;;;;;;5138250;27;20213;-65
2022/06/16 04:11:27;;;;;;;13.17;6.77;;;-12.90;99.90;;;;;;5138260;27;20261;-68
2022/06/16 04:14:18;;;;;;;6.30;5.77;;;-15.70;99.90;;;;;;5137918;27;20212;-65
2022/06/16 04:16:49;;;;;;;10.60;6.43;;;-11.30;99.90;;;;;;5134918;27;20213;-66
2022/06/16 04:19:17;;;;;;;7.93;5.90;;;-13.50;99.90;;;;;;5137011;27;20657;-67
2022/06/16 04:21:45;;;;;;;7.37;6.77;;;-12.90;99.90;;;;;;5138347;27;20204;-66
2022/06/16 04:24:11;;;;;;;6.80;6.10;;;-11.10;99.90;;;;;;5137116;27;20168;-72
2022/06/16 04:26:38;;;;;;;6.53;6.03;;;-12.90;99.90;;;;;;5138113;27;20519;-66
2022/06/16 04:29:05;;;;;;;9.73;7.30;;;-11.80;99.90;;;;;;5137729;27;20194;-70
2022/06/16 04:31:32;;;;;;;11.93;7.60;;;-12.10;99.90;;;;;;5137848;27;20175;-70
2022/06/16 04:33:58;;;;;;;8.40;7.63;;;-15.20;99.90;;;;;;5137901;27;20176;-65
2022/06/16 04:36:24;;;;;;;7.80;7.20;;;-13.00;99.90;;;;;;5137932;27;20222;-63
2022/06/16 04:38:50;;;;;;;8.13;7.20;;;-12.00;99.90;;;;;;5137779;27;20280;-67
2022/06/16 04:41:17;;;;;;;8.10;7.40;;;-11.50;99.90;;;;;;5137607;27;20580;-64
2022/06/16 04:43:43;;;;;;;8.60;7.07;;;-11.30;99.90;;;;;;5136275;27;20234;-64
2022/06/16 04:46:08;;;;;;;10.93;8.77;;;-12.50;99.90;;;;;;5137575;27;20192;-66
2022/06/16 04:48:36;;;;;;;10.10;7.03;;;-13.80;99.90;;;;;;5137540;27;20511;-65
2022/06/16 04:51:03;;;;;;;9.53;7.13;;;-12.20;99.90;;;;;;5136642;27;20189;-66
2022/06/16 04:53:30;;;;;;;15.53;7.77;;;-13.80;99.90;;;;;;5137472;27;20539;-68
2022/06/16 04:55:58;;;;;;;17.60;9.00;;;-15.30;99.90;;;;;;5136328;27;20166;-69
2022/06/16 04:58:25;;;;;;;11.70;7.27;;;-15.90;99.90;;;;;;5137035;27;20229;-64
2022/06/16 05:00:52;;;;;;;8.13;7.30;;;-14.40;99.90;;;;;;5136077;27;20197;-69
2022/06/16 05:03:20;;;;;;;9.73;7.83;;;-11.60;99.90;;;;;;5137662;27;20173;-69
2022/06/16 05:05:47;;;;;;;7.33;6.57;;;-13.70;99.90;;;;;;5137028;27;20174;-70
2022/06/16 05:08:14;;;;;;;9.20;7.57;;;-14.20;99.90;;;;;;5137223;27;20243;-70
2022/06/16 05:10:40;;;;;;;10.53;7.47;;;-12.90;99.90;;;;;;5137116;27;20172;-71
2022/06/16 05:13:07;;;;;;;9.83;6.17;;;-16.90;99.90;;;;;;5136952;27;20575;-67
2022/06/16 05:15:32;;;;;;;6.87;6.30;;;-16.10;99.90;;;;;;5137033;27;20169;-72
2022/06/16 05:17:58;;;;;;;9.20;7.57;;;-13.80;99.90;;;;;;5137011;27;20189;-72
2022/06/16 05:20:24;;;;;;;8.20;7.57;;;-13.80;99.90;;;;;;5136979;27;20168;-71
2022/06/16 05:22:50;;;;;;;7.83;6.77;;;-11.80;99.90;;;;;;5137090;27;20165;-69
2022/06/16 05:25:16;;;;;;;7.57;6.50;;;-13.00;99.90;;;;;;5137084;27;20264;-71
2022/06/16 05:27:42;;;;;;;9.83;7.40;;;-13.40;99.90;;;;;;5136884;27;20170;-72
2022/06/16 05:30:08;;;;;;;8.67;7.90;;;-17.40;99.90;;;;;;5136834;27;20193;-71
2022/06/16 05:32:35;;;;;;;9.20;7.53;;;-15.00;99.90;;;;;;5136414;27;20184;-69
2022/06/16 05:35:01;;;;;;;7.83;7.13;;;-15.00;99.90;;;;;;5132338;27;20169;-71
2022/06/16 05:37:27;;;;;;;6.93;6.23;;;-14.20;99.90;;;;;;5137496;27;20205;-72
2022/06/16 05:39:55;;;;;;;9.83;8.53;;;-12.30;99.90;;;;;;5134944;27;20164;-64
2022/06/16 05:42:20;;;;;;;13.47;7.53;;;-15.80;99.90;;;;;;5135876;27;20172;-65
2022/06/16 05:44:46;;;;;;;8.63;7.67;;;-15.40;99.90;;;;;;5136404;27;20169;-71
2022/06/16 05:47:12;;;;;;;9.77;7.80;;;-18.80;99.90;;;;;;5136643;27;20187;-67
2022/06/16 05:49:39;;;;;;;7.40;6.67;;;-17.90;99.90;;;;;;5135358;28;20221;-65
2022/06/16 05:52:12;;;;;;;8.03;6.63;;;-18.30;99.90;;;;;;5136275;27;20173;-72
2022/06/16 05:54:38;;;;;;;8.47;7.67;;;-22.90;99.90;;;;;;5136650;27;20264;-71
2022/06/16 05:57:05;;;;;;;7.73;7.10;;;-19.50;99.90;;;;;;5136296;27;20276;-66
2022/06/16 05:59:31;;;;;;;7.83;7.03;;;-13.40;99.90;;;;;;5136307;27;20173;-64
2022/06/16 06:01:56;;;;;;;7.60;6.97;;;-16.60;99.90;;;;;;5137320;27;20213;-66
2022/06/16 06:04:22;;;;;;;6.30;5.80;;;-16.90;99.90;;;;;;5140604;27;20180;-67
2022/06/16 06:06:48;;;;;;;7.90;7.10;;;-14.30;99.90;;;;;;5140449;27;20189;-68
2022/06/16 06:17:27;;;;;;;12.23;6.80;;;-16.60;99.90;;;;;;5140510;27;20195;-70
2022/06/16 06:19:53;;;;;;;8.17;7.50;;;-15.20;99.90;;;;;;5140424;27;20200;-69
2022/06/16 06:22:24;;;;;;;9.90;7.07;;;-12.70;99.90;;;;;;5140244;27;20164;-67
2022/06/16 06:24:56;;;;;;;15.80;7.77;;;-15.00;99.90;;;;;;5139907;27;20181;-67
2022/06/16 06:27:35;;;;;;;10.53;8.30;;;-17.20;99.90;;;;;;5139200;27;20169;-67
2022/06/16 06:30:04;;;;;;;7.33;6.40;;;-13.40;99.90;;;;;;5140103;27;20457;-67
2022/06/16 06:32:30;;;;;;;9.73;7.20;;;-15.40;99.90;;;;;;5144003;27;20174;-69
2022/06/16 06:34:56;;;;;;;8.43;7.10;;;-14.40;99.90;;;;;;5138981;27;20196;-68
2022/06/16 06:37:25;;;;;;;7.93;7.07;;;-13.60;99.90;;;;;;5158933;27;20209;-67
2022/06/16 06:39:51;;;;;;;7.43;6.73;;;-14.10;99.90;;;;;;5160246;27;20173;-68
2022/06/16 06:42:17;;;;;;;10.37;7.13;;;-10.90;99.90;;;;;;5160776;27;20545;-67
2022/06/16 06:44:43;;;;;;;10.00;7.80;;;-12.80;99.90;;;;;;5142439;27;20653;-67
2022/06/16 06:47:19;;;;;;;9.73;6.67;;;-9.80;99.90;;;;;;5150789;27;20172;-68
2022/06/16 06:49:46;;;;;;;10.27;7.17;;;-15.10;99.90;;;;;;5132012;27;20193;-67
2022/06/16 06:52:12;;;;;;;8.37;7.63;;;-20.70;99.90;;;;;;5136301;27;20192;-67
2022/06/16 06:54:38;;;;;;;11.90;8.87;;;-21.70;99.90;;;;;;5139047;27;20165;-68
2022/06/16 06:57:05;;;;;;;7.70;7.03;;;-19.80;99.90;;;;;;5139664;27;20216;-66
2022/06/16 06:59:30;;;;;;;8.47;7.43;;;-22.80;99.90;;;;;;5135883;27;20588;-66
2022/06/16 07:01:56;;;;;;;10.03;7.13;;;-16.90;99.90;;;;;;5138757;27;20173;-66
2022/06/16 07:04:22;;;;;;;11.43;8.03;;;-16.60;99.90;;;;;;5134999;27;20170;-69
2022/06/16 07:06:49;;;;;;;8.53;7.73;;;-16.50;99.90;;;;;;5117487;28;20247;-67
2022/06/16 07:09:19;;;;;;;16.53;8.07;;;-13.80;99.90;;;;;;5116949;28;20176;-68
2022/06/16 07:11:45;;;;;;;12.23;7.40;;;-19.40;99.90;;;;;;5118920;28;20188;-67
2022/06/16 07:14:11;;;;;;;15.80;7.33;;;-18.10;99.90;;;;;;5116788;28;20177;-68
2022/06/16 07:16:37;;;;;;;8.37;7.10;;;-14.40;99.90;;;;;;5122863;27;20205;-68
2022/06/16 07:19:04;;;;;;;8.70;7.40;;;-15.50;99.90;;;;;;5127578;27;20178;-68
2022/06/16 07:21:30;;;;;;;10.40;8.23;;;-17.20;99.90;;;;;;5118549;28;20175;-73
2022/06/16 07:23:56;;;;;;;9.60;8.70;;;-15.40;99.90;;;;;;5117172;28;20194;-68
2022/06/16 07:26:23;;;;;;;10.67;8.00;;;-14.80;99.90;;;;;;5118611;28;20166;-68
2022/06/16 07:28:49;;;;;;;9.50;7.77;;;-13.10;99.90;;;;;;5117573;27;20182;-67
2022/06/16 07:31:16;;;;;;;11.00;7.90;;;-13.30;99.90;;;;;;5121039;27;20230;-68
2022/06/16 07:33:42;;;;;;;10.47;7.63;;;-18.10;99.30;;;;;;5138269;27;20169;-66
2022/06/16 07:36:10;;;;;;;10.10;8.60;;;-11.60;99.90;;;;;;5138866;27;20490;-66
2022/06/16 07:38:36;;;;;;;8.23;7.43;;;-14.40;99.90;;;;;;5138252;27;20670;-66
2022/06/16 07:41:39;;;;;;;12.20;7.73;;;-17.80;99.10;;;;;;5138031;27;20165;-67
2022/06/16 07:44:01;;;;;;;9.20;6.67;;;-17.30;99.20;;;;;;5133949;27;20620;-66
2022/06/16 07:46:27;;;;;;;14.57;7.50;;;-12.70;99.90;;;;;;5138601;27;20178;-67
2022/06/16 07:48:53;;;;;;;8.50;7.63;;;-15.60;98.00;;;;;;5136799;27;20192;-66
2022/06/16 07:51:19;;;;;;;11.80;8.60;;;-12.80;99.00;;;;;;5123139;27;20213;-65
2022/06/16 07:53:45;;;;;;;12.50;7.73;;;-14.70;97.90;;;;;;5116586;28;20274;-69
2022/06/16 07:56:11;;;;;;;9.47;6.97;;;-13.80;97.70;;;;;;5118014;28;20457;-67
2022/06/16 07:58:39;;;;;;;9.67;6.47;;;-13.40;97.70;;;;;;5117591;28;20247;-67
2022/06/16 08:01:07;;;;;;;7.40;6.47;;;-15.10;97.20;;;;;;5122464;27;20609;-66
2022/06/16 08:03:33;;;;;;;6.50;5.97;;;-9.30;98.80;;;;;;5138022;27;20177;-67
2022/06/16 08:06:05;;;;;;;7.83;5.87;;;-12.50;97.70;;;;;;5138115;27;20934;-67
2022/06/16 08:08:31;;;;;;;10.60;6.10;;;-13.10;97.80;;;;;;5138321;27;20226;-68
2022/06/16 08:10:56;;;;;;;9.23;6.63;;;-9.70;97.60;;;;;;5137686;27;20174;-67
2022/06/16 08:13:23;;;;;;;7.23;5.90;;;-12.00;96.90;;;;;;5136858;27;20181;-68
2022/06/16 08:15:51;;;;;;;6.83;5.10;;;-12.80;96.50;;;;;;5137624;27;20192;-69
2022/06/16 08:18:21;;;;;;;6.80;5.57;;;-10.70;97.10;;;;;;5133170;27;20293;-68
2022/06/16 08:20:48;;;;;;;6.97;5.13;;;-11.30;97.50;;;;;;5124615;27;20173;-70
2022/06/16 08:23:14;;;;;;;7.83;6.20;;;-9.70;97.20;;;;;;5133596;27;20178;-66
2022/06/16 08:25:44;;;;;;;8.07;4.80;;;-10.40;96.40;;;;;;5117294;28;20813;-68
2022/06/16 08:28:19;;;;;;;6.23;4.43;;;-7.40;96.50;;;;;;5124175;27;20181;-68
2022/06/16 08:30:46;;;;;;;8.30;5.47;;;-15.60;93.80;;;;;;5137290;27;20168;-70
2022/06/16 08:33:14;;;;;;;5.17;4.50;;;-13.60;94.50;;;;;;5137641;27;20176;-72
2022/06/16 08:35:44;;;;;;;6.47;4.90;;;-9.80;95.10;;;;;;5137229;27;20256;-69
2022/06/16 08:38:10;;;;;;;7.00;5.03;;;-7.30;95.90;;;;;;5137354;27;20212;-68
2022/06/16 08:40:43;;;;;;;9.47;5.63;;;-8.40;95.20;;;;;;5137046;27;20604;-69
2022/06/16 08:43:26;;;;;;;7.30;4.87;;;-7.00;95.70;;;;;;5137275;27;20177;-69
2022/06/16 08:45:59;;;;;;;6.77;4.53;;;-6.80;96.90;;;;;;5137498;27;20166;-68
2022/06/16 08:48:46;;;;;;;9.70;5.07;;;-13.00;94.00;;;;;;5129452;27;20390;-67
2022/06/16 08:51:15;;;;;;;7.50;4.90;;;-8.30;95.50;;;;;;5115148;28;20268;-69
2022/06/16 08:54:28;;;;;;;7.10;5.60;;;-7.90;94.80;;;;;;5131028;27;20208;-67
2022/06/16 08:57:00;;;;;;;5.87;5.37;;;-12.10;93.60;;;;;;5094164;28;20224;-69
2022/06/16 08:59:47;;;;;;;6.40;4.30;;;-10.80;94.80;;;;;;5130625;27;20189;-68
2022/06/16 09:02:47;;;;;;;6.80;4.63;;;-9.90;94.00;;;;;;5136851;27;20238;-68
2022/06/16 09:05:43;;;;;;;5.03;3.63;;;-8.80;94.20;;;;;;5136604;27;20516;-67
2022/06/16 09:08:29;;;;;;;8.23;4.03;;;-12.00;93.00;;;;;;5139956;27;20257;-67
2022/06/16 09:11:10;;;;;;;4.50;3.80;;;-15.00;91.30;;;;;;5136227;27;20305;-67
2022/06/16 09:14:00;;;;;;;9.97;5.90;;;-12.10;91.40;;;;;;5137279;27;20201;-66
2022/06/16 09:16:38;;;;;;;7.03;3.37;;;-16.30;90.60;;;;;;5136747;27;20196;-67
2022/06/16 09:19:33;;;;;;;4.20;3.90;;;-8.30;92.00;;;;;;5135958;27;20184;-67
2022/06/16 09:22:18;;;;;;;4.20;3.87;;;-5.80;93.00;;;;;;5136642;27;20509;-67
2022/06/16 09:24:51;;;;;;;7.77;4.80;;;-4.10;92.80;;;;;;5136443;27;20167;-67
2022/06/16 09:27:55;;;;;;;4.40;3.63;;;-4.90;92.10;;;;;;5116311;27;20178;-68
2022/06/16 09:30:25;;;;;;;6.63;4.20;;;-8.30;91.20;;;;;;5129153;27;20185;-68
2022/06/16 09:32:58;;;;;;;4.67;4.13;;;-10.60;90.90;;;;;;5136191;27;20259;-72
2022/06/16 09:35:48;;;;;;;4.03;3.63;;;-5.50;90.90;;;;;;5136155;27;20238;-67
2022/06/16 09:38:41;;;;;;;4.00;3.70;;;-6.80;90.80;;;;;;5135439;27;20209;-71
2022/06/16 09:44:17;;;;;;;6.20;3.93;;;-6.00;91.90;;;;;;5135845;28;20183;-71
2022/06/16 09:46:50;;;;;;;4.60;3.40;;;-8.10;90.10;;;;;;5135101;28;20628;-73
2022/06/16 09:49:27;;;;;;;5.60;3.40;;;-4.90;90.50;;;;;;5122644;27;20602;-70
2022/06/16 09:52:03;;;;;;;3.70;3.43;;;-4.60;90.50;;;;;;5115766;28;20168;-70
2022/06/16 09:54:41;;;;;;;5.30;3.33;;;-4.70;90.00;;;;;;5114850;28;20518;-70
2022/06/16 09:57:33;;;;;;;4.03;3.63;;;-6.00;90.10;;;;;;5115647;28;20196;-68
2022/06/16 10:00:10;;;;;;;4.30;3.03;;;-7.50;86.90;;;;;;5115787;28;20472;-71
2022/06/16 10:02:57;;;;;;;5.50;3.30;;;-7.90;87.90;;;;;;5114328;28;20584;-72
2022/06/16 10:05:42;;;;;;;6.23;3.37;;;-5.20;85.60;;;;;;5115592;28;20250;-69
2022/06/16 10:08:24;;;;;;;3.17;2.67;;;-8.10;80.70;;;;;;5119719;28;20197;-67
2022/06/16 10:11:00;;;;;;;4.50;3.27;;;-7.20;84.60;;;;;;5133683;28;20215;-68
2022/06/16 10:13:43;;;;;;;3.20;2.87;;;-10.10;80.20;;;;;;5133848;28;20481;-69
2022/06/16 10:16:15;;;;;;;4.87;4.27;;;-8.40;81.30;;;;;;5135796;28;20502;-70
2022/06/16 10:18:42;;;;;;;5.63;4.33;;;-9.00;81.00;;;;;;5128139;27;20198;-69
2022/06/16 10:21:10;;;;;;;4.87;3.10;;;-6.50;83.50;;;;;;5114523;28;20166;-74
2022/06/16 10:23:46;;;;;;;3.67;3.47;;;-5.30;84.60;;;;;;5118005;28;20173;-70
2022/06/16 10:26:12;;;;;;;5.53;3.93;;;-1.40;85.40;;;;;;5135176;28;20169;-72
2022/06/16 10:28:40;;;;;;;3.30;3.00;;;-2.00;84.80;;;;;;5136059;27;20169;-67
2022/06/16 10:31:07;;;;;;;5.70;3.27;;;-5.10;82.60;;;;;;5124270;27;20186;-70
2022/06/16 10:33:53;;;;;;;3.07;2.63;;;-2.10;81.60;;;;;;5119453;27;20176;-69
2022/06/16 10:36:23;;;;;;;8.80;4.37;;;-4.40;79.50;;;;;;5123966;28;20260;-68
2022/06/16 10:39:07;;;;;;;4.70;2.70;;;-2.60;82.30;;;;;;5119700;27;20201;-74
2022/06/16 10:42:03;;;;;;;6.07;2.60;;;-0.70;78.90;;;;;;5127685;28;20595;-69
2022/06/16 10:44:30;;;;;;;3.43;2.50;;;-0.90;78.00;;;;;;5135817;27;20178;-71
2022/06/16 10:47:00;;;;;;;3.00;2.43;;;-0.10;80.00;;;;;;5135747;27;20216;-70
2022/06/16 10:49:31;;;;;;;3.83;2.40;;;-1.30;81.60;;;;;;5136957;27;20246;-70
2022/06/16 10:52:21;;;;;;;3.60;2.10;;;-1.70;77.60;;;;;;5139403;27;20248;-69
2022/06/16 10:54:58;;;;;;;3.27;3.00;;;-4.20;77.40;;;;;;5118088;28;20195;-71
2022/06/16 10:57:31;;;;;;;4.57;3.90;;;-2.20;78.10;;;;;;5118806;28;20197;-70
2022/06/16 11:00:11;;;;;;;3.23;3.00;;;1.90;77.70;;;;;;5132523;27;20272;-67
2022/06/16 11:02:55;;;;;;;3.00;2.70;;;24.70;92.00;;;;;;5138790;27;20580;-71
2022/06/16 11:05:20;;;;;;;5.40;3.63;;;25.00;92.00;;;;;;5139157;27;20212;-74
2022/06/16 11:07:46;;;;;;;4.00;2.83;;;24.80;91.40;;;;;;5138567;27;20624;-68
2022/06/16 11:10:14;;;;;;;3.73;2.57;;;24.50;91.00;;;;;;5138910;27;20162;-73
2022/06/16 11:12:45;;;;;;;2.37;2.27;;;24.40;90.60;;;;;;5139104;27;20588;-70
2022/06/16 11:15:29;;;;;;;8.27;2.93;;;25.70;91.90;;;;;;5126604;27;20664;-67
2022/06/16 11:17:59;;;;;;;4.27;2.53;;;25.90;87.40;;;;;;5119413;27;20213;-67
2022/06/16 11:20:43;;;;;;;3.97;2.60;;;25.80;87.60;;;;;;5138964;27;20162;-67
2022/06/16 11:23:21;;;;;;;3.13;2.73;;;25.90;85.00;;;;;;5137413;27;20191;-74
2022/06/16 11:25:53;;;;;;;3.10;2.67;;;25.80;87.00;;;;;;5118649;28;20173;-74
2022/06/16 11:28:24;;;;;;;2.70;2.50;;;25.80;88.50;;;;;;5137646;27;20181;-68
2022/06/16 11:31:00;;;;;;;3.63;2.60;;;26.30;90.30;;;;;;5138288;27;20181;-68
2022/06/16 11:36:45;;;;;;;3.33;2.30;;;26.50;85.00;;;;;;5128048;27;20196;-69
2022/06/16 11:39:17;;;;;;;4.50;2.33;;;26.40;82.30;;;;;;5118088;28;20174;-68
2022/06/16 11:41:49;;;;;;;2.27;2.00;;;26.70;82.50;;;;;;5118141;28;20520;-68
2022/06/16 11:44:27;;;;;;;2.67;2.20;;;26.90;86.00;;;;;;5117376;28;20162;-67
2022/06/16 11:47:08;;;;;;;4.80;2.43;;;26.90;84.00;;;;;;5127385;27;20305;-72
2022/06/16 11:50:09;;;;;;;2.53;2.33;;;25.60;78.40;;;;;;5122691;27;20174;-69
2022/06/16 11:52:54;;;;;;;4.43;3.03;;;27.50;81.00;;;;;;5095574;28;20181;-69
2022/06/16 11:55:47;;;;;;;1.90;1.80;;;-32.40;46.00;;;;;;5133774;27;20165;-68
2022/06/16 11:58:34;;;;;;;5.90;2.73;;;-24.50;50.10;;;;;;5157131;27;20224;-68
2022/06/16 12:01:00;;;;;;;2.15;2.05;;;-35.50;43.10;;;;;;5158182;27;20246;-71
2022/06/16 12:03:37;;;;;;;2.70;2.28;;;-37.40;41.90;;;;;;5137799;27;20252;-73
2022/06/16 12:06:27;;;;;;;2.92;2.40;;;-39.40;36.00;;;;;;5137311;27;20234;-68
2022/06/16 12:09:17;;;;;;;3.17;1.90;;;-28.60;43.10;;;;;;5138059;27;20200;-69
2022/06/16 12:11:49;;;;;;;2.28;1.85;;;-27.00;44.50;;;;;;5138344;27;20296;-70
2022/06/16 12:14:25;;;;;;;2.38;2.00;;;-40.00;32.00;;;;;;5123685;27;20178;-71
2022/06/16 12:17:23;;;;;;;5.70;2.20;;;-37.30;34.30;;;;;;5099133;27;20170;-71
2022/06/16 12:20:01;;;;;;;2.25;2.15;;;-31.70;38.10;;;;;;5110888;28;20197;-68
2022/06/16 12:22:53;;;;;;;3.17;1.95;;;-40.00;31.20;;;;;;5117219;27;20173;-72
2022/06/16 12:25:37;;;;;;;2.75;1.80;;;-38.20;31.00;;;;;;5112031;28;20592;-73
2022/06/16 12:28:24;;;;;;;4.28;2.20;;;-40.00;30.30;;;;;;5117188;28;20487;-68
2022/06/16 12:31:04;;;;;;;2.28;2.00;;;-40.00;29.20;;;;;;5116973;28;20158;-69
2022/06/16 12:34:03;;;;;;;2.40;2.20;;;-32.80;31.00;;;;;;5117253;28;20158;-75
2022/06/16 12:36:38;;;;;;;2.42;2.22;;;-21.30;34.50;;;;;;5110746;28;20186;-76
2022/06/16 12:39:24;;;;;;;3.55;1.90;;;-19.90;35.30;;;;;;5116757;28;20208;-69
2022/06/16 12:41:55;;;;;;;2.45;2.28;;;-14.70;38.50;;;;;;5116206;28;20600;-72
2022/06/16 12:44:29;;;;;;;2.13;2.03;;;-10.70;40.60;;;;;;5119292;27;20170;-72
2022/06/16 12:47:05;;;;;;;2.55;2.35;;;-4.50;42.00;;;;;;5137212;27;20556;-69
2022/06/16 12:49:53;;;;;;;2.35;2.20;;;-3.10;41.20;;;;;;5121887;27;20522;-69
2022/06/16 12:52:33;;;;;;;2.22;2.03;;;4.10;42.70;;;;;;5116795;28;20191;-70
2022/06/16 12:55:01;;;;;;;2.42;2.33;;;0.30;42.80;;;;;;5129290;27;20180;-73
2022/06/16 12:57:35;;;;;;;3.38;3.08;;;-1.20;39.40;;;;;;5136792;27;20249;-72
2022/06/16 13:00:10;;;;;;;2.97;2.70;;;0.30;42.90;;;;;;5136397;27;20166;-69
2022/06/16 13:02:53;;;;;;;4.00;2.20;;;-0.10;42.10;;;;;;5137137;27;20586;-70
2022/06/16 13:05:20;;;;;;;2.78;2.13;;;3.30;41.90;;;;;;5136656;27;20177;-69
2022/06/16 13:07:50;;;;;;;3.45;2.53;;;5.20;43.20;;;;;;5137126;27;20189;-72
2022/06/16 13:10:16;;;;;;;4.05;2.33;;;7.00;46.00;;;;;;5135940;27;20211;-69
2022/06/16 13:12:49;;;;;;;4.47;2.10;;;7.70;44.70;;;;;;5136052;27;20261;-69
2022/06/16 13:15:20;;;;;;;3.28;2.47;;;9.20;39.60;;;;;;5135547;27;20296;-69
2022/06/16 13:17:50;;;;;;;2.55;2.35;;;7.00;44.20;;;;;;5136296;27;20185;-71
2022/06/16 13:20:19;;;;;;;1.90;1.80;;;7.40;44.30;;;;;;5129658;27;20265;-69
2022/06/16 13:23:08;;;;;;;2.65;2.08;;;11.30;44.20;;;;;;5115431;28;20170;-70
2022/06/16 13:25:45;;;;;;;2.75;2.58;;;12.40;43.00;;;;;;5124246;27;20576;-68
2022/06/16 13:28:24;;;;;;;2.80;2.00;;;10.90;44.90;;;;;;5136438;27;20172;-69
2022/06/16 13:31:29;;;;;;;2.83;2.63;;;13.00;46.70;;;;;;5136365;27;20162;-69
2022/06/16 13:33:55;;;;;;;6.47;2.95;;;12.00;42.30;;;;;;5135692;27;20161;-68
2022/06/16 13:36:32;;;;;;;6.75;2.55;;;9.80;44.60;;;;;;5136485;27;20189;-69